createdAt,value
2022-10-15T00:02:14.722Z,11.13
2022-10-15T00:05:16.150Z,11.05
2022-10-15T00:08:17.735Z,10.95
2022-10-15T00:11:21.786Z,10.93
2022-10-15T00:14:23.596Z,10.95
2022-10-15T00:17:25.303Z,10.90
2022-10-15T00:20:26.935Z,10.94
2022-10-15T00:23:28.325Z,10.96
2022-10-15T00:26:30.811Z,10.91
2022-10-15T00:29:32.258Z,10.89
2022-10-15T00:32:33.839Z,10.93
2022-10-15T00:35:35.286Z,11.02
2022-10-15T00:38:36.865Z,11.07
2022-10-15T00:41:42.400Z,11.14
2022-10-15T00:44:47.977Z,11.16
2022-10-15T00:47:51.480Z,11.22
2022-10-15T00:50:53.389Z,11.28
2022-10-15T00:53:54.980Z,11.30
2022-10-15T00:56:56.737Z,11.36
2022-10-15T01:00:05.160Z,11.41
2022-10-15T01:03:06.609Z,11.43
2022-10-15T01:06:08.176Z,11.41
2022-10-15T01:09:09.805Z,11.43
2022-10-15T01:12:26.357Z,11.43
2022-10-15T01:15:51.058Z,11.46
2022-10-15T01:19:06.015Z,11.51
2022-10-15T01:22:34.256Z,11.53
2022-10-15T01:25:50.987Z,11.54
2022-10-15T01:29:18.649Z,11.56
2022-10-15T01:32:27.213Z,11.56
2022-10-15T01:35:46.573Z,11.51
2022-10-15T01:39:00.112Z,11.49
2022-10-15T01:42:10.475Z,11.49
2022-10-15T01:45:20.085Z,11.41
2022-10-15T01:48:37.084Z,11.28
2022-10-15T01:51:40.763Z,11.16
2022-10-15T01:54:43.552Z,11.05
2022-10-15T01:57:46.412Z,11.05
2022-10-15T02:00:49.774Z,11.11
2022-10-15T02:03:53.087Z,11.17
2022-10-15T02:07:06.776Z,11.13
2022-10-15T02:10:13.573Z,11.01
2022-10-15T02:13:23.773Z,10.94
2022-10-15T02:16:43.433Z,10.90
2022-10-15T02:20:19.782Z,10.84
2022-10-15T02:23:46.913Z,10.83
2022-10-15T02:26:52.240Z,10.75
2022-10-15T02:29:55.127Z,10.75
2022-10-15T02:32:58.788Z,10.67
2022-10-15T02:36:00.720Z,10.61
2022-10-15T02:39:04.307Z,10.57
2022-10-15T02:42:07.192Z,10.61
2022-10-15T02:45:09.405Z,10.62
2022-10-15T02:48:10.976Z,10.54
2022-10-15T02:51:13.629Z,10.53
2022-10-15T02:54:15.078Z,10.55
2022-10-15T02:57:16.530Z,10.62
2022-10-15T03:00:20.353Z,10.60
2022-10-15T03:03:23.747Z,10.61
2022-10-15T03:06:25.393Z,10.62
2022-10-15T03:09:27.241Z,10.48
2022-10-15T03:12:28.691Z,10.59
2022-10-15T03:15:30.521Z,10.47
2022-10-15T03:18:35.571Z,10.40
2022-10-15T03:21:39.615Z,10.25
2022-10-15T03:24:46.209Z,10.30
2022-10-15T03:27:47.893Z,10.19
2022-10-15T03:30:59.231Z,10.07
2022-10-15T03:34:01.693Z,10.08
2022-10-15T03:37:03.216Z,10.09
2022-10-15T03:40:08.278Z,10.07
2022-10-15T03:43:13.446Z,10.12
2022-10-15T03:46:15.187Z,10.01
2022-10-15T03:52:34.210Z,10.05
2022-10-15T03:55:35.672Z,9.94
2022-10-15T03:58:37.552Z,10.00
2022-10-15T04:01:41.571Z,10.03
2022-10-15T04:04:43.128Z,10.14
2022-10-15T04:07:44.745Z,10.07
2022-10-15T04:10:50.756Z,10.03
2022-10-15T04:13:52.271Z,10.23
2022-10-15T04:16:55.733Z,10.27
2022-10-15T04:19:58.942Z,10.29
2022-10-15T04:23:01.502Z,10.40
2022-10-15T04:26:03.539Z,10.51
2022-10-15T04:29:05.254Z,10.51
2022-10-15T04:32:06.868Z,10.63
2022-10-15T04:35:08.709Z,10.76
2022-10-15T04:38:28.659Z,10.82
2022-10-15T04:41:35.663Z,10.80
2022-10-15T04:44:40.275Z,10.75
2022-10-15T04:47:41.827Z,10.82
2022-10-15T04:50:46.821Z,10.81
2022-10-15T04:53:54.982Z,10.79
2022-10-15T04:56:56.521Z,10.85
2022-10-15T04:59:58.074Z,10.89
2022-10-15T05:03:06.352Z,10.93
2022-10-15T05:06:21.425Z,10.98
2022-10-15T05:09:25.384Z,11.02
2022-10-15T05:12:26.941Z,11.04
2022-10-15T05:15:29.131Z,11.04
2022-10-15T05:18:31.339Z,11.04
2022-10-15T05:21:34.947Z,11.05
2022-10-15T05:24:39.743Z,11.01
2022-10-15T05:27:59.242Z,11.04
2022-10-15T05:31:08.917Z,11.07
2022-10-15T05:34:12.469Z,11.05
2022-10-15T05:37:24.031Z,11.10
2022-10-15T05:40:25.644Z,11.14
2022-10-15T05:43:42.326Z,11.21
2022-10-15T05:46:56.440Z,11.23
2022-10-15T05:49:58.603Z,11.21
2022-10-15T05:53:05.728Z,11.20
2022-10-15T05:56:07.532Z,11.21
2022-10-15T05:59:09.034Z,11.22
2022-10-15T06:02:11.045Z,11.22
2022-10-15T06:05:12.528Z,11.22
2022-10-15T06:08:14.029Z,11.26
2022-10-15T06:11:15.917Z,11.26
2022-10-15T06:14:17.402Z,11.28
2022-10-15T06:17:18.852Z,11.28
2022-10-15T06:20:23.916Z,11.26
2022-10-15T06:23:25.455Z,11.29
2022-10-15T06:26:26.900Z,11.31
2022-10-15T06:29:28.298Z,11.33
2022-10-15T06:32:30.895Z,11.35
2022-10-15T06:35:32.380Z,11.41
2022-10-15T06:38:34.480Z,11.44
2022-10-15T06:41:35.874Z,11.50
2022-10-15T06:44:37.280Z,11.51
2022-10-15T06:47:41.641Z,11.55
2022-10-15T06:50:43.106Z,11.59
2022-10-15T06:53:44.556Z,11.67
2022-10-15T06:56:46.116Z,11.71
2022-10-15T06:59:47.527Z,11.74
2022-10-15T07:02:50.382Z,11.77
2022-10-15T07:05:51.811Z,11.82
2022-10-15T07:08:53.241Z,11.86
2022-10-15T07:11:54.650Z,11.93
2022-10-15T07:14:56.092Z,11.97
2022-10-15T07:17:57.514Z,11.95
2022-10-15T07:20:58.959Z,11.95
2022-10-15T07:24:00.471Z,11.91
2022-10-15T07:27:08.065Z,11.86
2022-10-15T07:30:18.667Z,11.82
2022-10-15T07:33:20.368Z,11.84
2022-10-15T07:36:33.788Z,11.90
2022-10-15T07:39:37.784Z,11.93
2022-10-15T07:42:42.188Z,11.97
2022-10-15T07:45:47.655Z,12.02
2022-10-15T07:48:49.067Z,12.09
2022-10-15T07:51:50.464Z,12.10
2022-10-15T07:54:51.884Z,12.14
2022-10-15T07:57:57.446Z,12.22
2022-10-15T08:01:03.771Z,12.35
2022-10-15T08:04:05.251Z,12.35
2022-10-15T08:07:08.056Z,12.47
2022-10-15T08:10:11.743Z,12.66
2022-10-15T08:13:13.846Z,12.93
2022-10-15T08:16:18.501Z,13.21
2022-10-15T08:19:26.999Z,13.28
2022-10-15T08:22:28.417Z,13.50
2022-10-15T08:25:30.694Z,13.82
2022-10-15T08:28:33.507Z,14.25
2022-10-15T08:31:35.059Z,14.39
2022-10-15T08:34:36.464Z,14.28
2022-10-15T08:37:38.184Z,14.43
2022-10-15T08:40:39.867Z,14.73
2022-10-15T08:43:43.104Z,14.95
2022-10-15T08:46:56.084Z,14.53
2022-10-15T08:50:01.179Z,14.20
2022-10-15T08:53:12.776Z,14.42
2022-10-15T08:56:21.604Z,14.64
2022-10-15T08:59:36.375Z,14.86
2022-10-15T09:03:19.849Z,14.56
2022-10-15T09:06:27.489Z,14.24
2022-10-15T09:09:44.425Z,14.31
2022-10-15T09:12:53.421Z,14.35
2022-10-15T09:16:03.580Z,14.37
2022-10-15T09:19:14.919Z,13.94
2022-10-15T09:22:18.955Z,13.70
2022-10-15T09:25:26.517Z,13.61
2022-10-15T09:28:42.810Z,13.55
2022-10-15T09:35:19.476Z,13.72
2022-10-15T09:38:36.261Z,13.52
2022-10-15T09:42:02.232Z,13.40
2022-10-15T09:45:06.711Z,13.37
2022-10-15T09:48:18.418Z,13.38
2022-10-15T09:51:29.996Z,13.51
2022-10-15T09:54:48.878Z,13.59
2022-10-15T09:57:54.996Z,13.72
2022-10-15T10:01:02.185Z,13.80
2022-10-15T10:04:12.885Z,13.93
2022-10-15T10:07:30.615Z,13.81
2022-10-15T10:10:33.231Z,13.78
2022-10-15T10:13:55.064Z,13.85
2022-10-15T10:17:16.639Z,13.85
2022-10-15T10:20:20.282Z,13.82
2022-10-15T10:23:25.221Z,13.78
2022-10-15T10:26:26.714Z,13.76
2022-10-15T10:29:35.323Z,13.61
2022-10-15T10:32:37.131Z,13.53
2022-10-15T10:35:46.407Z,13.49
2022-10-15T10:39:12.771Z,13.54
2022-10-15T10:42:17.673Z,13.57
2022-10-15T10:45:22.475Z,13.66
2022-10-15T10:48:37.296Z,13.72
2022-10-15T10:51:49.267Z,13.72
2022-10-15T10:54:57.586Z,13.82
2022-10-15T10:57:59.809Z,13.78
2022-10-15T11:01:01.261Z,13.80
2022-10-15T11:04:03.686Z,13.80
2022-10-15T11:07:21.514Z,13.80
2022-10-15T11:10:35.071Z,13.75
2022-10-15T11:13:46.090Z,13.83
2022-10-15T11:17:10.621Z,13.89
2022-10-15T11:20:34.497Z,13.84
2022-10-15T11:24:12.132Z,13.88
2022-10-15T11:27:49.243Z,13.86
2022-10-15T11:31:00.414Z,13.83
2022-10-15T11:34:29.533Z,13.91
2022-10-15T11:37:53.002Z,13.92
2022-10-15T11:41:16.256Z,14.01
2022-10-15T11:44:26.801Z,14.20
2022-10-15T11:47:55.907Z,14.23
2022-10-15T11:51:06.875Z,14.23
2022-10-15T11:54:14.055Z,14.24
2022-10-15T11:57:18.853Z,14.28
2022-10-15T12:00:51.672Z,14.27
2022-10-15T12:04:01.001Z,14.18
2022-10-15T12:07:06.088Z,14.08
2022-10-15T12:10:13.651Z,14.15
2022-10-15T12:13:26.228Z,14.16
2022-10-15T12:16:37.193Z,14.25
2022-10-15T12:20:06.645Z,14.32
2022-10-15T12:23:23.175Z,14.56
2022-10-15T12:26:24.534Z,14.63
2022-10-15T12:29:27.480Z,14.69
2022-10-15T12:32:35.776Z,14.75
2022-10-15T12:35:38.629Z,14.87
2022-10-15T12:38:41.457Z,14.93
2022-10-15T12:41:46.042Z,14.95
2022-10-15T12:44:51.178Z,15.11
2022-10-15T12:47:55.210Z,15.15
2022-10-15T12:51:29.082Z,14.95
2022-10-15T12:54:42.625Z,14.83
2022-10-15T12:57:44.013Z,15.02
2022-10-15T13:00:45.596Z,15.29
2022-10-15T13:03:50.089Z,15.42
2022-10-15T13:06:51.755Z,15.48
2022-10-15T13:09:53.825Z,15.72
2022-10-15T13:13:15.593Z,15.86
2022-10-15T13:16:17.053Z,15.82
2022-10-15T13:19:21.162Z,15.70
2022-10-15T13:22:30.666Z,15.61
2022-10-15T13:25:32.100Z,15.73
2022-10-15T13:28:35.830Z,15.77
2022-10-15T13:31:39.994Z,15.72
2022-10-15T13:34:41.586Z,15.52
2022-10-15T13:37:43.989Z,15.68
2022-10-15T13:40:49.162Z,15.54
2022-10-15T13:43:51.840Z,15.70
2022-10-15T13:46:53.332Z,15.76
2022-10-15T13:50:11.490Z,15.79
2022-10-15T13:53:33.655Z,15.81
2022-10-15T13:56:35.349Z,15.64
2022-10-15T13:59:36.828Z,15.63
2022-10-15T14:02:38.353Z,15.76
2022-10-15T14:05:39.809Z,15.86
2022-10-15T14:08:41.283Z,15.89
2022-10-15T14:11:42.796Z,15.55
2022-10-15T14:14:47.799Z,15.28
2022-10-15T14:17:51.756Z,15.16
2022-10-15T14:20:54.130Z,15.39
2022-10-15T14:24:14.343Z,15.40
2022-10-15T14:27:22.499Z,15.44
2022-10-15T14:30:31.918Z,15.45
2022-10-15T14:33:39.275Z,15.07
2022-10-15T14:36:42.172Z,15.02
2022-10-15T14:39:48.032Z,15.18
2022-10-15T14:43:03.596Z,15.09
2022-10-15T14:46:12.746Z,14.95
2022-10-15T14:49:31.547Z,14.99
2022-10-15T14:52:36.223Z,15.47
2022-10-15T14:55:42.952Z,15.61
2022-10-15T14:58:54.792Z,15.21
2022-10-15T15:02:02.675Z,15.03
2022-10-15T15:05:08.049Z,15.05
2022-10-15T15:08:09.608Z,15.04
2022-10-15T15:11:15.012Z,15.07
2022-10-15T15:14:24.337Z,15.06
2022-10-15T15:17:28.613Z,15.07
2022-10-15T15:20:30.117Z,15.07
2022-10-15T15:23:32.037Z,14.95
2022-10-15T15:26:33.556Z,14.83
2022-10-15T15:29:34.957Z,14.82
2022-10-15T15:32:36.405Z,14.85
2022-10-15T15:35:44.012Z,14.81
2022-10-15T15:38:45.534Z,14.78
2022-10-15T15:41:46.967Z,14.67
2022-10-15T15:44:50.649Z,14.53
2022-10-15T15:47:52.502Z,14.32
2022-10-15T15:50:55.719Z,14.16
2022-10-15T15:53:58.647Z,14.02
2022-10-15T15:57:00.222Z,14.05
2022-10-15T16:00:01.760Z,13.99
2022-10-15T16:03:03.326Z,14.03
2022-10-15T16:06:05.996Z,13.97
2022-10-15T16:09:07.779Z,13.96
2022-10-15T16:12:09.180Z,13.85
2022-10-15T16:15:14.362Z,13.80
2022-10-15T16:18:16.639Z,13.76
2022-10-15T16:21:22.281Z,13.71
2022-10-15T16:24:23.863Z,13.62
2022-10-15T16:27:25.546Z,13.59
2022-10-15T16:30:27.692Z,13.54
2022-10-15T16:33:29.088Z,13.42
2022-10-15T16:36:31.589Z,13.44
2022-10-15T16:39:32.983Z,13.23
2022-10-15T16:42:34.498Z,12.99
2022-10-15T16:45:35.901Z,13.04
2022-10-15T16:48:37.300Z,12.94
2022-10-15T16:51:41.376Z,12.86
2022-10-15T16:54:45.013Z,12.77
2022-10-15T16:57:46.399Z,12.59
2022-10-15T17:00:47.821Z,12.50
2022-10-15T17:03:49.245Z,12.39
2022-10-15T17:06:50.654Z,12.33
2022-10-15T17:09:52.106Z,12.33
2022-10-15T17:12:53.678Z,12.40
2022-10-15T17:15:59.140Z,12.42
2022-10-15T17:19:03.293Z,12.50
2022-10-15T17:22:04.699Z,12.73
2022-10-15T17:25:06.319Z,12.80
2022-10-15T17:28:12.606Z,12.88
2022-10-15T17:31:19.287Z,13.04
2022-10-15T17:34:21.772Z,13.11
2022-10-15T17:37:23.291Z,13.30
2022-10-15T17:40:25.898Z,13.34
2022-10-15T17:43:27.581Z,13.35
2022-10-15T17:46:29.459Z,13.38
2022-10-15T17:49:30.876Z,13.44
2022-10-15T17:52:32.605Z,13.48
2022-10-15T17:55:34.013Z,13.46
2022-10-15T17:58:35.556Z,13.47
2022-10-15T18:05:01.136Z,13.39
2022-10-15T18:08:02.691Z,13.34
2022-10-15T18:11:04.664Z,13.27
2022-10-15T18:14:06.895Z,13.25
2022-10-15T18:17:09.840Z,13.16
2022-10-15T18:20:11.277Z,13.11
2022-10-15T18:23:12.753Z,13.07
2022-10-15T18:26:20.220Z,13.00
2022-10-15T18:29:21.853Z,12.97
2022-10-15T18:32:23.283Z,12.89
2022-10-15T18:35:24.707Z,12.86
2022-10-15T18:38:26.129Z,12.82
2022-10-15T18:41:30.639Z,12.81
2022-10-15T18:44:32.145Z,12.81
2022-10-15T18:47:33.616Z,12.79
2022-10-15T18:50:35.067Z,12.80
2022-10-15T18:53:40.057Z,12.83
2022-10-15T18:56:41.543Z,12.81
2022-10-15T18:59:43.004Z,12.79
2022-10-15T19:02:44.477Z,12.74
2022-10-15T19:05:45.904Z,12.80
2022-10-15T19:08:47.373Z,12.80
2022-10-15T19:11:50.846Z,12.77
2022-10-15T19:14:52.265Z,12.80
2022-10-15T19:17:53.856Z,12.89
2022-10-15T19:20:55.516Z,12.89
2022-10-15T19:23:57.044Z,12.95
2022-10-15T19:26:58.488Z,13.03
2022-10-15T19:30:00.031Z,13.11
2022-10-15T19:33:01.667Z,13.13
2022-10-15T19:36:03.262Z,13.16
2022-10-15T19:39:08.211Z,13.10
2022-10-15T19:42:09.679Z,13.11
2022-10-15T19:45:11.231Z,13.04
2022-10-15T19:48:15.191Z,12.92
2022-10-15T19:51:16.601Z,12.82
2022-10-15T19:54:18.132Z,12.74
2022-10-15T19:57:19.613Z,12.85
2022-10-15T20:00:21.141Z,12.78
2022-10-15T20:03:23.907Z,12.87
2022-10-15T20:06:25.828Z,12.96
2022-10-15T20:09:27.268Z,12.89
2022-10-15T20:12:28.680Z,12.69
2022-10-15T20:15:30.099Z,12.73
2022-10-15T20:18:31.974Z,12.80
2022-10-15T20:21:33.692Z,12.77
2022-10-15T20:24:35.089Z,12.81
2022-10-15T20:27:37.974Z,12.83
2022-10-15T20:30:39.949Z,12.83
2022-10-15T20:33:41.741Z,12.86
2022-10-15T20:36:43.460Z,12.87
2022-10-15T20:39:44.949Z,12.89
2022-10-15T20:42:46.424Z,12.84
2022-10-15T20:45:48.003Z,12.79
2022-10-15T20:48:49.823Z,12.80
2022-10-15T20:51:51.649Z,12.75
2022-10-15T20:54:54.503Z,12.73
2022-10-15T20:57:56.299Z,12.75
2022-10-15T21:00:58.083Z,12.74
2022-10-15T21:04:00.767Z,12.77
2022-10-15T21:07:02.199Z,12.92
2022-10-15T21:10:04.946Z,12.89
2022-10-15T21:13:06.391Z,12.97
2022-10-15T21:16:08.806Z,13.01
2022-10-15T21:19:10.263Z,12.92
2022-10-15T21:22:11.657Z,12.94
2022-10-15T21:25:13.091Z,13.04
2022-10-15T21:28:14.801Z,13.04
2022-10-15T21:31:17.346Z,13.00
2022-10-15T21:34:19.019Z,13.00
2022-10-15T21:37:20.488Z,12.96
2022-10-15T21:40:21.893Z,12.84
2022-10-15T21:43:23.282Z,12.81
2022-10-15T21:46:25.281Z,12.78
2022-10-15T21:49:26.691Z,12.73
2022-10-15T21:52:28.123Z,12.62
2022-10-15T21:55:30.671Z,12.51
2022-10-15T21:58:32.318Z,12.42
2022-10-15T22:01:35.723Z,12.39
2022-10-15T22:04:37.193Z,12.23
2022-10-15T22:07:40.304Z,12.29
2022-10-15T22:10:41.978Z,12.36
2022-10-15T22:13:45.561Z,12.28
2022-10-15T22:16:46.970Z,12.18
2022-10-15T22:19:49.599Z,12.27
2022-10-15T22:22:53.486Z,12.21
2022-10-15T22:25:58.897Z,12.13
2022-10-15T22:29:02.262Z,12.12
2022-10-15T22:32:03.857Z,12.18
2022-10-15T22:35:05.654Z,11.97
2022-10-15T22:38:07.108Z,11.95
2022-10-15T22:41:08.718Z,12.12
2022-10-15T22:44:14.193Z,12.10
2022-10-15T22:47:15.646Z,12.01
2022-10-15T22:50:17.169Z,12.09
2022-10-15T22:53:18.602Z,12.11
2022-10-15T22:56:20.181Z,12.15
2022-10-15T22:59:21.637Z,12.27
2022-10-15T23:02:23.207Z,12.23
2022-10-15T23:05:24.867Z,12.20
2022-10-15T23:08:26.303Z,12.23
2022-10-15T23:11:36.481Z,12.21
2022-10-15T23:14:37.992Z,12.21
2022-10-15T23:17:39.394Z,12.35
2022-10-15T23:20:40.787Z,12.29
2022-10-15T23:23:43.230Z,12.31
2022-10-15T23:26:44.693Z,12.26
2022-10-15T23:29:50.511Z,12.26
2022-10-15T23:32:58.385Z,12.24
2022-10-15T23:36:04.735Z,12.28
2022-10-15T23:39:06.502Z,12.36
2022-10-15T23:42:08.069Z,12.32
2022-10-15T23:45:09.923Z,12.26
2022-10-15T23:48:11.349Z,12.23
2022-10-15T23:51:21.857Z,12.21
2022-10-15T23:54:23.489Z,12.17
2022-10-15T23:57:25.200Z,12.21
